Airfield :
LOGIN :

Register | Disclaimer

   EN    FR    IT 

 










Legend :    VFR   Marginal VFR   IFR   Intensive IFR   Very Intensive IFR
Visi :
Ceiling :
>= 8 km
>= 3000ft
5 to 8 km
1000 to 3000 ft
1500m to 5 km
500 to 1000 ft
800 to 1500m
200 to 500 ft
< 800m
< 200 ft
Symbols :   Thunderstorms  Fog  Heavy snow  Heavy precipitations  Wind > 20 kt
SIGMETs :     Misc.  Thunderstorms  Icing  Turbulence  Mountain Waves  Volcanic Ashes







- Airport Elevation : 26 ft
- IATA code : GAE


DTTG - Matmata

CURRENT METAR :
  • 220800Z 36011KT 8000 SCT020 BKN030 10/06 Q1017 NOSIG

EXPIRED METARs :
  • 220700Z 02010KT 7000 SCT020 BKN030 10/06 Q1016 NOSIG
  • 220600Z 02010KT 7000 SCT020 BKN030 10/07 Q1016 NOSIG

TAF TAF DTTG
Valid from the 22 at 07:00 until the 22 at 16:00 UTC


220600Z 2207/2216 36005KT SCT023CB
PROB40
TEMPO 2208/2215 4000 TSRA FEW026CB
No reported NOTAMs for that airfield.



MET'MAP, your aeronautical weather chart ! - Copyright ORBIFLY December 2007 - Disclaimer

ORBIFLY MET'MAP TEAM :

Programming & Development : Alexandra Zaïnal
Concept & Development : Baudouin d'Aumeries
Co-Development & Prog : Marc-Olivier Méhu
Technical & hardware support : Manuel Goepfert

Contact : metmap@orbifly.com




SOURCES & CREDITS :

   NOAA